Time;durP1;ratioP1;P1;durP2;ratioP2;P2;SDS_P1;SDS_P2;PMS_P1;PMS_P2;Temp;Humidity;BMP_temperature;BMP_pressure;BME280_temperature;BME280_humidity;BME280_pressure;Samples;Min_cycle;Max_cycle;Signal;HPM_P1;HPM_P2
2022/08/14 00:01:54;;;;;;;2.88;1.40;;;21.90;56.10;;;;;;5114385;28;20031;-81
2022/08/14 00:04:19;;;;;;;2.47;1.30;;;21.90;56.10;;;;;;5113343;28;20031;-80
2022/08/14 00:06:45;;;;;;;3.78;1.48;;;21.90;56.20;;;;;;5113041;28;20028;-79
2022/08/14 00:09:11;;;;;;;3.08;1.70;;;21.90;56.20;;;;;;5113371;28;20051;-79
2022/08/14 00:11:37;;;;;;;1.60;1.20;;;21.80;56.10;;;;;;5112581;28;20028;-80
2022/08/14 00:14:03;;;;;;;4.90;1.40;;;21.80;56.10;;;;;;5113138;28;20118;-80
2022/08/14 00:16:29;;;;;;;2.47;1.60;;;21.80;56.30;;;;;;5112272;28;20065;-79
2022/08/14 00:18:54;;;;;;;1.88;1.40;;;21.70;56.30;;;;;;5113590;28;20051;-79
2022/08/14 00:21:20;;;;;;;2.15;1.38;;;21.80;56.30;;;;;;5116827;28;20024;-79
2022/08/14 00:23:46;;;;;;;2.25;1.77;;;21.80;56.40;;;;;;5117370;28;20040;-80
2022/08/14 00:26:11;;;;;;;1.70;1.60;;;21.70;56.40;;;;;;5118169;28;20024;-79
2022/08/14 00:28:37;;;;;;;1.40;1.30;;;21.70;56.50;;;;;;5113301;28;20028;-79
2022/08/14 00:31:04;;;;;;;4.80;1.52;;;21.70;56.70;;;;;;5121332;27;20039;-79
2022/08/14 00:33:31;;;;;;;2.05;1.60;;;21.70;56.80;;;;;;5112827;28;20035;-79
2022/08/14 00:35:57;;;;;;;3.35;1.50;;;21.60;56.80;;;;;;5113345;28;20046;-78
2022/08/14 00:38:23;;;;;;;4.20;1.50;;;21.60;57.00;;;;;;5096495;28;20461;-78
2022/08/14 00:40:49;;;;;;;2.22;1.65;;;21.50;57.10;;;;;;5113288;28;20036;-78
2022/08/14 00:43:15;;;;;;;1.55;1.45;;;21.50;57.20;;;;;;5112442;28;20102;-79
2022/08/14 00:45:41;;;;;;;1.73;1.45;;;21.50;57.30;;;;;;5112597;28;20024;-78
2022/08/14 00:48:09;;;;;;;1.40;1.30;;;21.40;57.40;;;;;;5113255;28;20026;-78
2022/08/14 00:50:34;;;;;;;1.95;1.52;;;21.40;57.40;;;;;;5096643;28;20024;-80
2022/08/14 00:53:00;;;;;;;2.42;1.27;;;21.50;57.60;;;;;;5097054;28;20082;-81
2022/08/14 00:55:27;;;;;;;2.08;1.40;;;21.40;57.60;;;;;;5112631;28;20020;-81
2022/08/14 01:00:38;;;;;;;3.13;1.20;;;21.30;57.80;;;;;;5096892;28;20085;-81
2022/08/14 01:03:06;;;;;;;3.28;1.60;;;21.30;57.90;;;;;;5096091;28;20032;-81
2022/08/14 01:05:33;;;;;;;2.38;1.73;;;21.20;58.00;;;;;;5096301;28;20032;-80
2022/08/14 01:08:00;;;;;;;2.40;1.67;;;21.20;58.20;;;;;;5112998;28;20029;-81
2022/08/14 01:10:49;;;;;;;1.92;1.48;;;21.20;58.20;;;;;;5096919;28;20028;-80
2022/08/14 01:13:15;;;;;;;4.93;1.50;;;21.20;58.30;;;;;;5096838;28;20036;-80
2022/08/14 01:15:47;;;;;;;1.73;1.48;;;21.20;58.40;;;;;;5112076;28;20024;-79
2022/08/14 01:21:05;;;;;;;4.80;1.80;;;21.00;58.80;;;;;;5096708;28;20141;-78
2022/08/14 01:23:32;;;;;;;1.98;1.38;;;21.00;58.90;;;;;;5111997;28;20067;-78
2022/08/14 01:25:58;;;;;;;4.32;1.70;;;21.00;59.00;;;;;;5096410;28;20069;-78
2022/08/14 01:28:30;;;;;;;3.75;1.60;;;21.00;59.00;;;;;;5111314;28;20119;-79
2022/08/14 01:30:57;;;;;;;1.60;1.50;;;20.90;59.20;;;;;;5112216;28;20480;-79
2022/08/14 01:33:28;;;;;;;2.38;1.50;;;20.90;59.30;;;;;;5096202;28;20038;-78
2022/08/14 01:36:03;;;;;;;2.15;1.67;;;20.90;59.40;;;;;;5096472;28;20110;-80
2022/08/14 01:38:33;;;;;;;1.65;1.30;;;20.90;59.40;;;;;;5096340;28;20035;-79
2022/08/14 01:41:10;;;;;;;2.55;1.50;;;20.90;59.40;;;;;;5112067;28;20032;-77
2022/08/14 01:44:03;;;;;;;1.80;1.40;;;20.90;59.40;;;;;;5111846;28;20119;-78
2022/08/14 01:46:30;;;;;;;2.33;1.70;;;20.80;59.30;;;;;;5111750;28;20078;-79
2022/08/14 01:48:57;;;;;;;1.60;1.50;;;20.90;59.30;;;;;;5095998;28;20134;-79
2022/08/14 01:51:27;;;;;;;1.92;1.50;;;20.90;59.30;;;;;;5111526;28;20028;-78
2022/08/14 01:53:57;;;;;;;2.25;1.77;;;20.80;59.20;;;;;;5111937;28;20028;-79
2022/08/14 01:56:37;;;;;;;1.83;1.60;;;20.80;59.90;;;;;;5111438;28;20377;-79
2022/08/14 01:59:05;;;;;;;4.95;1.55;;;20.80;59.40;;;;;;5095860;28;20020;-78
2022/08/14 02:01:33;;;;;;;2.55;1.73;;;20.80;59.50;;;;;;5095641;28;20024;-78
2022/08/14 02:03:59;;;;;;;3.17;1.42;;;20.70;59.50;;;;;;5111607;28;20495;-79
2022/08/14 02:06:25;;;;;;;1.50;1.40;;;20.70;59.50;;;;;;5110780;28;20024;-78
2022/08/14 02:08:52;;;;;;;3.13;1.58;;;20.70;59.70;;;;;;5095508;28;20016;-78
2022/08/14 02:11:21;;;;;;;1.42;1.33;;;20.60;59.70;;;;;;5111570;28;20027;-78
2022/08/14 02:13:51;;;;;;;2.00;1.60;;;20.60;59.70;;;;;;5110651;28;20481;-78
2022/08/14 02:16:20;;;;;;;4.72;1.60;;;20.60;59.70;;;;;;5111439;28;20023;-78
2022/08/14 02:18:47;;;;;;;2.10;1.52;;;20.60;59.80;;;;;;5110449;28;20457;-78
2022/08/14 02:21:17;;;;;;;5.15;1.55;;;20.60;59.90;;;;;;5111650;28;20024;-78
2022/08/14 02:23:47;;;;;;;3.40;1.50;;;20.50;59.90;;;;;;5110202;28;20137;-78
2022/08/14 02:26:15;;;;;;;3.92;1.92;;;20.50;60.00;;;;;;5111022;28;20028;-78
2022/08/14 02:28:41;;;;;;;1.95;1.58;;;20.50;60.20;;;;;;5094204;28;20028;-78
2022/08/14 02:31:07;;;;;;;1.92;1.65;;;20.50;60.90;;;;;;5111129;28;20020;-78
2022/08/14 02:33:34;;;;;;;2.97;1.70;;;20.40;60.10;;;;;;5110359;28;20077;-78
2022/08/14 02:36:03;;;;;;;2.25;1.60;;;20.40;60.20;;;;;;5094879;28;20478;-78
2022/08/14 02:38:30;;;;;;;2.38;1.67;;;20.40;60.10;;;;;;5094380;28;20130;-78
2022/08/14 02:40:57;;;;;;;2.50;1.50;;;20.50;60.30;;;;;;5095224;28;20032;-79
2022/08/14 02:43:23;;;;;;;3.30;1.80;;;20.40;60.20;;;;;;5110427;28;20032;-80
2022/08/14 02:45:48;;;;;;;5.85;1.60;;;20.40;60.20;;;;;;5095219;28;20027;-80
2022/08/14 02:48:14;;;;;;;1.98;1.55;;;20.40;60.30;;;;;;5110872;28;20035;-80
2022/08/14 02:50:41;;;;;;;2.25;1.40;;;20.30;60.40;;;;;;5110457;28;20054;-80
2022/08/14 02:53:08;;;;;;;4.68;1.73;;;20.40;60.60;;;;;;5110411;28;20028;-79
2022/08/14 02:55:34;;;;;;;4.20;1.70;;;20.30;60.60;;;;;;5110046;28;20081;-80
2022/08/14 02:58:00;;;;;;;2.13;1.65;;;20.30;60.60;;;;;;5094900;28;20016;-79
2022/08/14 03:00:26;;;;;;;2.08;1.80;;;20.20;60.90;;;;;;5094233;28;20028;-80
2022/08/14 03:02:52;;;;;;;1.55;1.33;;;20.20;60.80;;;;;;5110607;28;20095;-79
2022/08/14 03:05:19;;;;;;;2.13;1.55;;;20.20;60.90;;;;;;5110766;28;20032;-79
2022/08/14 03:07:45;;;;;;;2.45;1.60;;;20.20;61.10;;;;;;5109910;28;20085;-79
2022/08/14 03:10:10;;;;;;;2.65;1.45;;;20.10;61.10;;;;;;5094608;28;20020;-79
2022/08/14 03:12:36;;;;;;;2.88;1.75;;;20.10;61.20;;;;;;5094306;28;20100;-78
2022/08/14 03:15:09;;;;;;;2.65;1.67;;;20.10;61.30;;;;;;5110469;28;20024;-79
2022/08/14 03:17:35;;;;;;;3.67;1.60;;;20.00;61.60;;;;;;5109748;28;20115;-78
2022/08/14 03:20:03;;;;;;;2.95;1.85;;;20.00;61.70;;;;;;5110283;28;20031;-79
2022/08/14 03:22:29;;;;;;;2.30;1.70;;;20.00;61.80;;;;;;5093959;28;20145;-79
2022/08/14 03:24:54;;;;;;;1.58;1.40;;;19.90;61.80;;;;;;5110255;28;20032;-79
2022/08/14 03:27:20;;;;;;;3.00;1.48;;;20.00;61.70;;;;;;5094290;28;20027;-80
2022/08/14 03:29:47;;;;;;;2.22;1.75;;;19.90;61.90;;;;;;5109604;28;20509;-80
2022/08/14 03:32:12;;;;;;;3.05;1.83;;;19.90;61.90;;;;;;5110334;28;20077;-80
2022/08/14 03:34:38;;;;;;;3.85;1.88;;;20.00;61.80;;;;;;5093871;28;20465;-79
2022/08/14 03:37:04;;;;;;;1.98;1.73;;;20.00;61.60;;;;;;5094103;28;20024;-79
2022/08/14 03:39:29;;;;;;;1.90;1.60;;;20.10;61.60;;;;;;5093897;28;20024;-80
2022/08/14 03:41:56;;;;;;;2.38;1.55;;;20.10;61.60;;;;;;5109832;28;20056;-80
2022/08/14 03:44:24;;;;;;;2.83;1.77;;;20.10;61.60;;;;;;5110334;28;20051;-79
2022/08/14 03:46:50;;;;;;;1.60;1.50;;;20.10;61.50;;;;;;5109471;28;20457;-80
2022/08/14 03:49:19;;;;;;;2.08;1.50;;;20.10;61.60;;;;;;5110297;28;20026;-80
2022/08/14 03:51:44;;;;;;;2.92;1.67;;;20.00;61.80;;;;;;5109615;28;20481;-80
2022/08/14 03:54:11;;;;;;;3.65;1.65;;;20.00;62.00;;;;;;5109783;28;20050;-80
2022/08/14 03:56:37;;;;;;;4.82;1.65;;;20.00;62.00;;;;;;5109426;28;20077;-80
2022/08/14 03:59:09;;;;;;;2.35;2.15;;;20.00;62.20;;;;;;5109817;28;20024;-79
2022/08/14 04:01:35;;;;;;;4.00;1.80;;;20.10;62.40;;;;;;5109581;28;20380;-80
2022/08/14 04:04:04;;;;;;;3.28;1.58;;;20.10;62.70;;;;;;5109483;28;20028;-80
2022/08/14 04:06:34;;;;;;;2.70;1.80;;;20.10;62.90;;;;;;5109139;28;20575;-79
2022/08/14 04:09:00;;;;;;;1.60;1.50;;;20.00;63.10;;;;;;5109537;28;20492;-79
2022/08/14 04:11:27;;;;;;;2.85;1.80;;;19.90;63.20;;;;;;5109419;28;20032;-79
2022/08/14 04:13:53;;;;;;;2.45;2.25;;;19.90;63.40;;;;;;5108996;28;20032;-78
2022/08/14 04:16:21;;;;;;;1.98;1.77;;;19.90;63.50;;;;;;5093261;28;20039;-78
2022/08/14 04:18:53;;;;;;;7.20;2.58;;;20.00;63.60;;;;;;5108790;28;20036;-77
2022/08/14 04:21:23;;;;;;;2.80;1.70;;;19.90;63.60;;;;;;5093617;28;20497;-77
2022/08/14 04:23:49;;;;;;;3.13;1.70;;;19.90;63.50;;;;;;5108397;28;20082;-77
2022/08/14 04:26:17;;;;;;;2.50;1.92;;;19.90;63.70;;;;;;5093485;28;20024;-79
2022/08/14 04:28:43;;;;;;;2.97;1.90;;;19.90;63.60;;;;;;5092899;28;20020;-79
2022/08/14 04:31:09;;;;;;;4.43;1.88;;;19.90;63.30;;;;;;5109297;28;20024;-78
2022/08/14 04:33:35;;;;;;;3.88;1.95;;;19.90;63.10;;;;;;5092860;28;20067;-78
2022/08/14 04:36:02;;;;;;;1.80;1.70;;;19.90;63.20;;;;;;5109095;28;20326;-78
2022/08/14 04:43:57;;;;;;;3.05;2.17;;;19.80;64.20;;;;;;5093393;28;20035;-79
2022/08/14 04:46:24;;;;;;;4.07;2.75;;;19.70;65.40;;;;;;5109143;28;20028;-79
2022/08/14 04:48:50;;;;;;;4.32;2.63;;;19.60;67.00;;;;;;5108740;28;20457;-79
2022/08/14 04:51:19;;;;;;;4.82;2.53;;;19.70;68.20;;;;;;5109331;28;20469;-82
2022/08/14 04:53:49;;;;;;;3.05;2.10;;;19.60;68.20;;;;;;5093304;28;20050;-82
2022/08/14 04:56:21;;;;;;;2.85;2.55;;;19.60;68.10;;;;;;5109300;28;20074;-81
2022/08/14 04:58:56;;;;;;;3.45;2.88;;;19.70;69.00;;;;;;5093327;28;20027;-80
2022/08/14 05:01:25;;;;;;;4.22;2.17;;;19.70;69.70;;;;;;5109338;28;20366;-80
2022/08/14 05:03:52;;;;;;;4.38;2.63;;;19.70;70.40;;;;;;5108861;28;20034;-78
2022/08/14 05:06:18;;;;;;;3.65;2.88;;;19.70;70.40;;;;;;5110421;28;20024;-79
2022/08/14 05:08:44;;;;;;;3.10;2.80;;;19.70;70.60;;;;;;5112487;28;20024;-79
2022/08/14 05:11:10;;;;;;;3.40;3.10;;;19.80;70.90;;;;;;5112895;28;20064;-79
2022/08/14 05:13:36;;;;;;;4.70;2.97;;;19.80;71.10;;;;;;5112865;28;20028;-80
2022/08/14 05:16:04;;;;;;;4.25;3.38;;;19.80;71.10;;;;;;5096953;28;20024;-81
2022/08/14 05:18:36;;;;;;;5.97;3.13;;;19.80;71.20;;;;;;5113241;28;20449;-81
2022/08/14 05:21:05;;;;;;;6.75;3.00;;;19.80;71.30;;;;;;5112894;28;20024;-81
2022/08/14 05:23:33;;;;;;;4.55;3.25;;;19.80;71.50;;;;;;5113009;28;20517;-82
2022/08/14 05:26:04;;;;;;;3.60;2.90;;;19.80;71.50;;;;;;5112479;28;20032;-81
2022/08/14 05:28:35;;;;;;;4.15;3.33;;;19.80;71.60;;;;;;5112836;28;20020;-83
2022/08/14 05:31:05;;;;;;;3.70;2.85;;;19.90;71.50;;;;;;5112583;28;20487;-83
2022/08/14 05:33:33;;;;;;;4.37;3.30;;;19.90;71.70;;;;;;5112430;28;20035;-82
2022/08/14 05:36:05;;;;;;;3.00;2.70;;;19.90;71.60;;;;;;5096215;28;20028;-82
2022/08/14 05:38:36;;;;;;;6.57;3.13;;;20.00;71.60;;;;;;5112819;28;20171;-82
2022/08/14 05:41:03;;;;;;;3.70;3.08;;;20.00;71.50;;;;;;5111998;28;20032;-81
2022/08/14 05:43:33;;;;;;;7.95;3.38;;;20.00;71.50;;;;;;5096484;28;20039;-81
2022/08/14 05:45:59;;;;;;;5.18;3.03;;;20.00;71.70;;;;;;5095855;28;20027;-81
2022/08/14 05:48:26;;;;;;;5.45;3.00;;;20.00;71.70;;;;;;5112261;28;20028;-81
2022/08/14 05:50:53;;;;;;;3.97;3.03;;;20.10;72.00;;;;;;5111669;28;20382;-80
2022/08/14 05:53:23;;;;;;;4.03;3.25;;;20.10;71.80;;;;;;5096553;28;20552;-81
2022/08/14 05:55:50;;;;;;;4.10;3.30;;;20.20;71.80;;;;;;5111685;28;20066;-81
2022/08/14 05:58:15;;;;;;;7.28;3.10;;;20.20;72.00;;;;;;5112346;28;20086;-80
2022/08/14 06:00:43;;;;;;;4.22;3.08;;;20.20;72.30;;;;;;5111235;28;20020;-80
2022/08/14 06:03:17;;;;;;;4.60;3.35;;;20.30;72.50;;;;;;5096316;28;20094;-80
2022/08/14 06:05:44;;;;;;;7.97;3.40;;;20.40;72.70;;;;;;5111862;28;20467;-81
2022/08/14 06:08:20;;;;;;;4.40;3.75;;;20.40;72.90;;;;;;5111845;28;20058;-79
2022/08/14 06:10:46;;;;;;;4.45;3.60;;;20.40;73.00;;;;;;5111287;28;20060;-80
2022/08/14 06:13:13;;;;;;;4.15;3.20;;;20.40;73.00;;;;;;5095682;28;20036;-80
2022/08/14 06:15:40;;;;;;;4.13;3.38;;;20.50;73.40;;;;;;5111841;28;20423;-80
2022/08/14 06:18:06;;;;;;;4.55;3.45;;;20.50;73.30;;;;;;5111339;28;20073;-81
2022/08/14 06:20:32;;;;;;;4.47;3.60;;;20.60;73.40;;;;;;5095957;28;20024;-80
2022/08/14 06:22:58;;;;;;;4.55;3.60;;;20.60;73.20;;;;;;5110929;28;20020;-78
2022/08/14 06:25:24;;;;;;;6.47;4.00;;;20.70;73.30;;;;;;5111478;28;20035;-79
2022/08/14 06:27:50;;;;;;;5.10;3.60;;;20.70;73.30;;;;;;5110554;28;20031;-78
2022/08/14 06:30:25;;;;;;;6.32;3.50;;;20.80;73.10;;;;;;5095223;28;20024;-79
2022/08/14 06:32:50;;;;;;;5.93;3.55;;;20.90;73.00;;;;;;5110401;28;20031;-78
2022/08/14 06:35:19;;;;;;;4.95;2.95;;;20.90;72.60;;;;;;5110817;28;20030;-79
2022/08/14 06:37:51;;;;;;;6.63;3.60;;;21.00;72.30;;;;;;5110121;28;20020;-78
2022/08/14 06:40:19;;;;;;;4.80;3.25;;;21.00;72.20;;;;;;5110855;28;20028;-78
2022/08/14 06:42:45;;;;;;;4.60;3.22;;;21.00;72.10;;;;;;5110072;28;20143;-81
2022/08/14 06:45:14;;;;;;;5.35;3.10;;;21.10;72.10;;;;;;5110787;28;20063;-82
2022/08/14 06:47:42;;;;;;;3.97;3.05;;;21.10;71.50;;;;;;5094497;28;20028;-79
2022/08/14 06:50:14;;;;;;;4.63;3.13;;;21.20;70.90;;;;;;5110713;28;20032;-78
2022/08/14 06:52:40;;;;;;;4.25;2.95;;;21.20;71.10;;;;;;5093955;28;20036;-79
2022/08/14 06:55:08;;;;;;;3.45;2.78;;;21.30;70.60;;;;;;5110947;28;20047;-78
2022/08/14 06:57:39;;;;;;;4.45;2.85;;;21.40;70.40;;;;;;5110081;28;20533;-80
2022/08/14 07:00:10;;;;;;;3.80;3.00;;;21.40;69.60;;;;;;5110261;28;20024;-77
2022/08/14 07:08:05;;;;;;;6.10;3.33;;;21.60;69.20;;;;;;5094184;28;20035;-77
2022/08/14 07:10:32;;;;;;;3.63;3.22;;;21.70;69.30;;;;;;5093460;28;20028;-77
2022/08/14 07:12:58;;;;;;;4.75;3.30;;;21.80;69.20;;;;;;5108787;28;20503;-77
2022/08/14 07:15:23;;;;;;;3.40;2.78;;;21.80;68.90;;;;;;5109499;28;20468;-76
2022/08/14 07:17:50;;;;;;;5.70;2.78;;;21.80;68.70;;;;;;5109023;28;20030;-76
2022/08/14 07:20:19;;;;;;;4.25;2.85;;;21.90;68.40;;;;;;5109574;28;20110;-77
2022/08/14 07:22:48;;;;;;;5.38;3.00;;;21.90;68.20;;;;;;5109123;28;20032;-77
2022/08/14 07:25:14;;;;;;;4.65;3.08;;;22.00;68.10;;;;;;5093860;28;20392;-76
2022/08/14 07:27:40;;;;;;;5.22;3.08;;;22.10;68.50;;;;;;5109450;28;20027;-76
2022/08/14 07:30:07;;;;;;;4.50;3.03;;;22.10;68.00;;;;;;5114177;27;20043;-76
2022/08/14 07:32:32;;;;;;;3.40;2.85;;;22.10;67.50;;;;;;5103748;28;20054;-76
2022/08/14 07:34:58;;;;;;;3.72;2.55;;;22.20;67.10;;;;;;5101475;28;20063;-76
2022/08/14 07:37:24;;;;;;;3.92;2.80;;;22.30;67.30;;;;;;5098685;28;20020;-76
2022/08/14 07:39:50;;;;;;;4.45;3.10;;;22.30;66.90;;;;;;5096939;28;20403;-76
2022/08/14 07:42:16;;;;;;;3.60;2.72;;;22.50;66.80;;;;;;5098395;28;20549;-75
2022/08/14 07:44:41;;;;;;;4.07;2.92;;;22.50;66.50;;;;;;5104581;28;20115;-76
2022/08/14 07:47:07;;;;;;;3.88;2.80;;;22.50;66.50;;;;;;5092235;28;20027;-76
2022/08/14 07:49:33;;;;;;;3.03;2.70;;;22.60;65.90;;;;;;5092002;28;20374;-76
2022/08/14 07:52:03;;;;;;;4.03;2.72;;;22.70;65.60;;;;;;5091268;28;20454;-76
2022/08/14 07:54:30;;;;;;;4.22;3.00;;;22.70;65.70;;;;;;5108276;28;20521;-77
2022/08/14 07:57:00;;;;;;;3.83;2.70;;;22.80;65.50;;;;;;5111201;28;20031;-76
2022/08/14 07:59:26;;;;;;;2.85;2.30;;;22.80;65.20;;;;;;5112289;28;20024;-76
2022/08/14 08:01:52;;;;;;;6.85;2.35;;;23.00;65.00;;;;;;5112775;28;20024;-76
2022/08/14 08:04:27;;;;;;;3.35;2.60;;;23.00;64.40;;;;;;5113692;28;20042;-76
2022/08/14 08:06:53;;;;;;;3.90;2.63;;;23.10;63.90;;;;;;5111797;28;20055;-76
2022/08/14 08:09:25;;;;;;;3.75;2.65;;;23.10;63.70;;;;;;5112151;28;20435;-76
2022/08/14 08:11:51;;;;;;;3.13;2.55;;;23.20;63.70;;;;;;5111750;28;20119;-76
2022/08/14 08:14:18;;;;;;;3.08;2.50;;;23.30;63.70;;;;;;5112419;28;20036;-76
2022/08/14 08:16:46;;;;;;;7.15;3.00;;;23.40;63.40;;;;;;5113580;28;20030;-77
2022/08/14 08:19:12;;;;;;;4.10;2.55;;;23.40;63.60;;;;;;5112716;28;20035;-77
2022/08/14 08:21:39;;;;;;;4.43;2.50;;;23.40;63.40;;;;;;5112284;28;20024;-77
2022/08/14 08:24:05;;;;;;;2.70;2.35;;;23.50;63.30;;;;;;5112880;28;20027;-77
2022/08/14 08:26:30;;;;;;;3.35;2.40;;;23.50;62.10;;;;;;5113448;28;20037;-76
2022/08/14 08:28:58;;;;;;;3.60;2.28;;;23.60;61.40;;;;;;5111287;28;20111;-76
2022/08/14 08:31:25;;;;;;;2.58;1.75;;;23.60;60.70;;;;;;5112804;28;20379;-76
2022/08/14 08:33:51;;;;;;;3.70;2.30;;;23.60;60.10;;;;;;5111406;28;20028;-76
2022/08/14 08:36:17;;;;;;;5.68;2.58;;;23.80;60.30;;;;;;5111708;28;20115;-76
2022/08/14 08:38:45;;;;;;;2.30;2.10;;;23.80;60.30;;;;;;5111837;28;20503;-77
2022/08/14 08:41:11;;;;;;;2.58;2.28;;;23.90;60.40;;;;;;5113505;28;20028;-75
2022/08/14 08:43:38;;;;;;;2.60;2.05;;;24.00;60.50;;;;;;5117036;28;20035;-75
2022/08/14 08:46:09;;;;;;;3.58;2.42;;;24.10;60.20;;;;;;5116101;28;20030;-76
2022/08/14 08:48:47;;;;;;;4.10;2.58;;;24.20;60.20;;;;;;5117070;27;20072;-76
2022/08/14 08:51:34;;;;;;;4.20;2.88;;;24.20;60.00;;;;;;5115512;28;20024;-76
2022/08/14 08:54:09;;;;;;;2.50;2.10;;;24.30;60.30;;;;;;5114818;28;20475;-77
2022/08/14 08:56:49;;;;;;;3.50;1.70;;;24.40;58.50;;;;;;5115725;28;20162;-76
2022/08/14 08:59:22;;;;;;;2.63;2.00;;;24.50;57.70;;;;;;5116097;28;20178;-77
2022/08/14 09:01:56;;;;;;;3.58;2.00;;;24.50;57.30;;;;;;5116358;28;20076;-77
2022/08/14 09:04:24;;;;;;;3.25;1.73;;;24.50;57.30;;;;;;5116868;28;20035;-77
2022/08/14 09:06:50;;;;;;;3.67;1.67;;;24.60;57.60;;;;;;5116084;28;20032;-77
2022/08/14 09:09:18;;;;;;;2.92;1.90;;;24.70;56.50;;;;;;5116817;28;20023;-75
2022/08/14 09:11:44;;;;;;;2.40;1.80;;;24.70;56.50;;;;;;5115116;28;20403;-76
2022/08/14 09:14:10;;;;;;;5.28;2.10;;;24.80;56.60;;;;;;5114505;28;20399;-76
2022/08/14 09:16:36;;;;;;;4.15;2.05;;;24.80;57.00;;;;;;5114945;28;20023;-76
2022/08/14 09:19:02;;;;;;;2.63;2.10;;;24.90;56.90;;;;;;5114704;28;20468;-76
2022/08/14 09:21:29;;;;;;;4.32;1.90;;;24.90;56.60;;;;;;5115318;28;20128;-76
2022/08/14 09:23:55;;;;;;;2.83;1.95;;;25.00;56.60;;;;;;5114689;28;20089;-76
2022/08/14 09:26:21;;;;;;;2.67;2.00;;;25.00;56.50;;;;;;5114914;28;20032;-76
2022/08/14 09:28:46;;;;;;;2.00;1.80;;;24.90;56.50;;;;;;5114851;28;20473;-76
2022/08/14 09:31:14;;;;;;;2.90;1.40;;;24.90;56.30;;;;;;5114203;28;20020;-77
2022/08/14 09:34:06;;;;;;;1.52;1.25;;;25.20;54.00;;;;;;5116062;27;20031;-87
2022/08/14 09:37:13;;;;;;;3.97;1.73;;;25.40;52.90;;;;;;5115935;27;20027;-87
2022/08/14 09:39:38;;;;;;;1.88;1.50;;;25.50;52.60;;;;;;5112664;27;20110;-90
2022/08/14 09:42:36;;;;;;;2.75;2.00;;;25.60;52.50;;;;;;5121737;27;20083;-86
2022/08/14 09:45:35;;;;;;;1.55;1.45;;;25.60;52.10;;;;;;5097371;27;20118;-87
2022/08/14 09:48:01;;;;;;;1.48;1.38;;;25.80;52.10;;;;;;5119721;27;20058;-85
2022/08/14 09:50:42;;;;;;;2.08;1.25;;;26.00;52.10;;;;;;5129220;27;20090;-77
2022/08/14 09:53:09;;;;;;;4.70;1.50;;;26.10;51.30;;;;;;5100883;27;20337;-74
2022/08/14 09:55:36;;;;;;;2.35;1.10;;;26.20;51.10;;;;;;5125923;27;20027;-76
2022/08/14 09:58:14;;;;;;;4.78;1.60;;;26.10;50.90;;;;;;5124414;27;20027;-75
2022/08/14 10:00:59;;;;;;;1.67;1.58;;;26.10;50.70;;;;;;5117470;27;20041;-76
2022/08/14 10:03:34;;;;;;;3.28;1.35;;;26.30;51.00;;;;;;5126603;27;20031;-75
2022/08/14 10:06:12;;;;;;;1.60;1.50;;;26.50;50.60;;;;;;5125048;27;20035;-76
2022/08/14 10:09:02;;;;;;;1.40;1.30;;;26.40;50.90;;;;;;5116611;27;20024;-75
2022/08/14 10:11:32;;;;;;;1.33;1.20;;;26.50;51.00;;;;;;5128326;27;20032;-78
2022/08/14 10:14:01;;;;;;;2.17;1.40;;;26.60;50.50;;;;;;5125712;27;20110;-79
2022/08/14 10:16:28;;;;;;;1.52;1.40;;;26.70;50.00;;;;;;5119635;27;20016;-78
2022/08/14 10:19:22;;;;;;;2.65;1.50;;;26.80;49.80;;;;;;5129511;27;20084;-76
2022/08/14 10:22:09;;;;;;;2.70;1.60;;;26.80;49.30;;;;;;5121078;27;20114;-76
2022/08/14 10:24:40;;;;;;;3.15;1.60;;;27.00;49.00;;;;;;5118264;27;20031;-80
2022/08/14 10:27:25;;;;;;;2.97;2.03;;;27.20;48.60;;;;;;5101315;27;20049;-79
2022/08/14 10:29:58;;;;;;;2.20;1.77;;;27.40;48.10;;;;;;5123917;27;20023;-76
2022/08/14 10:32:24;;;;;;;5.50;2.15;;;27.50;48.00;;;;;;5127918;27;20028;-75
2022/08/14 10:34:50;;;;;;;4.10;1.60;;;27.40;48.40;;;;;;5115700;27;20384;-74
2022/08/14 10:37:17;;;;;;;2.05;1.48;;;27.50;48.40;;;;;;5127450;27;20106;-75
2022/08/14 10:39:57;;;;;;;2.17;1.58;;;27.50;48.40;;;;;;5121874;27;20019;-77
2022/08/14 10:42:33;;;;;;;1.40;1.30;;;27.60;48.10;;;;;;5118155;27;20507;-75
2022/08/14 10:44:58;;;;;;;2.22;1.50;;;27.70;47.70;;;;;;5111095;27;20032;-76
2022/08/14 10:47:35;;;;;;;2.42;1.63;;;27.80;47.90;;;;;;5120419;27;20021;-76
2022/08/14 10:50:02;;;;;;;1.95;1.50;;;27.80;47.50;;;;;;5120114;27;20076;-76
2022/08/14 10:52:31;;;;;;;1.52;1.42;;;27.80;47.30;;;;;;5126976;27;20027;-76
2022/08/14 10:55:07;;;;;;;1.90;1.40;;;27.70;47.50;;;;;;5115685;27;20031;-76
2022/08/14 10:57:34;;;;;;;2.85;1.90;;;27.60;47.60;;;;;;5124154;27;20031;-76
2022/08/14 11:00:14;;;;;;;3.15;1.70;;;27.90;47.30;;;;;;5123604;27;20023;-75
2022/08/14 11:02:41;;;;;;;4.93;1.70;;;28.20;46.60;;;;;;5114246;27;20027;-75
2022/08/14 11:05:17;;;;;;;2.38;1.60;;;28.30;46.60;;;;;;5114376;27;20030;-76
2022/08/14 11:07:59;;;;;;;3.70;1.70;;;28.50;46.20;;;;;;5123558;27;20027;-76
2022/08/14 11:10:59;;;;;;;3.05;1.60;;;28.40;46.40;;;;;;5127208;27;20027;-75
2022/08/14 11:13:29;;;;;;;2.38;1.67;;;28.40;46.40;;;;;;5093134;27;20387;-75
2022/08/14 11:15:59;;;;;;;1.75;1.63;;;28.60;45.90;;;;;;5120186;27;20034;-75
2022/08/14 11:18:26;;;;;;;2.42;1.48;;;28.70;46.00;;;;;;5127172;27;20031;-75
2022/08/14 11:20:58;;;;;;;2.20;1.55;;;28.70;45.90;;;;;;5115462;27;20525;-76
2022/08/14 11:23:31;;;;;;;2.00;1.80;;;28.70;45.80;;;;;;5124435;27;20023;-75
2022/08/14 11:25:58;;;;;;;23.02;5.22;;;28.90;45.60;;;;;;5121578;27;20023;-75
2022/08/14 11:28:27;;;;;;;6.28;1.83;;;29.00;45.80;;;;;;5118134;27;20024;-75
2022/08/14 11:30:55;;;;;;;3.00;1.63;;;29.10;45.00;;;;;;5127451;27;20046;-74
2022/08/14 11:33:28;;;;;;;2.13;1.58;;;29.20;44.90;;;;;;5117295;27;20508;-75
2022/08/14 11:35:54;;;;;;;1.38;1.27;;;29.40;44.20;;;;;;5117663;27;20350;-75
2022/08/14 11:38:20;;;;;;;3.38;1.38;;;29.50;44.00;;;;;;5125753;27;20151;-78
2022/08/14 11:40:46;;;;;;;1.60;1.50;;;29.50;44.20;;;;;;5113212;27;20413;-77
2022/08/14 11:43:11;;;;;;;2.97;1.50;;;29.50;44.10;;;;;;5109719;28;20047;-75
2022/08/14 11:45:39;;;;;;;1.70;1.40;;;29.70;44.10;;;;;;5111219;28;20023;-76
2022/08/14 11:48:24;;;;;;;3.15;1.42;;;29.60;43.70;;;;;;5124462;27;20357;-76
2022/08/14 11:50:55;;;;;;;2.90;1.30;;;29.70;42.10;;;;;;5114314;28;20023;-75
2022/08/14 11:53:29;;;;;;;1.25;1.15;;;29.70;42.70;;;;;;5126612;27;20028;-78
2022/08/14 11:56:05;;;;;;;2.00;1.40;;;30.00;42.60;;;;;;5121685;27;20118;-77
2022/08/14 11:58:33;;;;;;;1.50;1.33;;;30.10;42.70;;;;;;5114838;28;20453;-75
2022/08/14 12:01:08;;;;;;;27.98;15.32;;;30.10;42.60;;;;;;5124945;28;20024;-75
2022/08/14 12:03:37;;;;;;;83.50;49.92;;;30.20;43.10;;;;;;5114356;27;20507;-75
2022/08/14 12:06:05;;;;;;;8.75;5.90;;;30.00;42.70;;;;;;5122901;28;20019;-77
2022/08/14 12:08:35;;;;;;;4.22;2.67;;;30.10;42.30;;;;;;5117405;27;20020;-78
2022/08/14 12:11:02;;;;;;;4.03;1.90;;;30.30;42.10;;;;;;5127963;28;20457;-78
2022/08/14 12:13:32;;;;;;;2.45;1.50;;;30.30;41.80;;;;;;5118296;28;20110;-76
2022/08/14 12:16:06;;;;;;;1.90;1.50;;;30.40;41.50;;;;;;5122659;27;20020;-81
2022/08/14 12:18:38;;;;;;;1.85;1.15;;;30.60;41.20;;;;;;5130697;27;20475;-75
2022/08/14 12:21:13;;;;;;;1.80;1.00;;;30.60;41.30;;;;;;5101194;27;20581;-76
2022/08/14 12:23:40;;;;;;;1.45;1.35;;;30.90;40.00;;;;;;5126492;27;20500;-78
2022/08/14 12:26:12;;;;;;;2.67;1.33;;;31.20;39.60;;;;;;5127750;27;20455;-78
2022/08/14 12:28:38;;;;;;;1.67;1.10;;;31.30;38.80;;;;;;5120514;27;20062;-78
2022/08/14 12:31:18;;;;;;;2.95;1.30;;;31.50;38.50;;;;;;5131736;27;20047;-77
2022/08/14 12:33:59;;;;;;;1.73;1.60;;;31.50;38.20;;;;;;5124550;27;20456;-77
2022/08/14 12:36:29;;;;;;;2.20;1.13;;;31.70;38.80;;;;;;5125933;27;20023;-77
2022/08/14 12:38:55;;;;;;;2.10;1.90;;;31.90;38.80;;;;;;5117371;27;20472;-78
2022/08/14 12:41:25;;;;;;;2.65;1.42;;;32.00;38.60;;;;;;5129588;27;20403;-77
2022/08/14 12:43:57;;;;;;;1.83;1.50;;;32.20;38.90;;;;;;5124631;27;20122;-76
2022/08/14 12:46:32;;;;;;;2.22;1.33;;;32.40;38.70;;;;;;5121934;27;20093;-79
2022/08/14 12:49:03;;;;;;;4.50;1.70;;;32.60;37.70;;;;;;5131486;27;20024;-76
2022/08/14 12:51:31;;;;;;;2.13;1.40;;;32.70;37.20;;;;;;5122382;27;20035;-78
2022/08/14 12:53:58;;;;;;;1.60;1.20;;;32.60;37.50;;;;;;5123085;27;20038;-77
2022/08/14 12:56:24;;;;;;;1.33;1.13;;;32.50;37.60;;;;;;5119998;27;20357;-78
2022/08/14 12:58:55;;;;;;;1.92;1.40;;;32.50;37.70;;;;;;5132708;27;20023;-81
2022/08/14 13:01:20;;;;;;;;;;;32.50;37.50;;;;;;5121969;27;20023;-81
2022/08/14 13:03:49;;;;;;;1.30;1.10;;;32.50;37.60;;;;;;5126370;27;20044;-80
2022/08/14 13:06:15;;;;;;;1.20;1.10;;;32.40;37.70;;;;;;5114841;28;20073;-78
2022/08/14 13:08:41;;;;;;;1.70;1.10;;;32.40;37.70;;;;;;5116829;27;20027;-78
2022/08/14 13:11:12;;;;;;;1.13;1.02;;;32.50;37.50;;;;;;5130434;27;20028;-79
2022/08/14 13:13:43;;;;;;;2.40;1.10;;;32.60;37.30;;;;;;5123749;27;20027;-79
2022/08/14 13:16:15;;;;;;;3.03;1.10;;;32.70;37.30;;;;;;5130464;27;20027;-79